Bullhead City, Arizona
Current Conditions -  °F | °C
As of 4:35 PM on Thursday 18 Dec 2014 (Local Time) from KIFP Reporting Station
Clear Clear  
Wind Chill: 61°   Ceiling: Unl
Heat Index: 61°   Visibility: 10mi
Dew Point: 39°   Wind: 12mph
Humidity: 45%   Direction: 350°N
Pressure: 30.14"   Gusts: NA
Location:  35.13°N, 114.57°W
Report Text: KIFP 182335Z AUTO 35010KT 10SM CLR 16/04 A3014 RMK AO2
Loading
Personal Weather Stations






























Interactive Weather Map New forecast layout! Learn more

10-Day Weather Forecast

Advertisements
Track Severe Weather on mobile